Time;durP1;ratioP1;P1;durP2;ratioP2;P2;SDS_P1;SDS_P2;PMS_P1;PMS_P2;Temp;Humidity;BMP_temperature;BMP_pressure;BME280_temperature;BME280_humidity;BME280_pressure;Samples;Min_cycle;Max_cycle;Signal;HPM_P1;HPM_P2
2024/02/01 04:48:10;;;;;;;279.70;130.90;;;;;;;-2.57;100.00;99576.19;262932;1307;545270;-86
2024/02/01 04:54:18;;;;;;;235.80;107.60;;;;;;;-2.58;100.00;99573.62;270050;1282;22909;-85
2024/02/01 05:00:21;;;;;;;182.60;80.60;;;;;;;-2.33;100.00;99576.02;272556;1268;115628;-85
2024/02/01 05:06:23;;;;;;;201.50;86.80;;;;;;;-2.00;100.00;99575.33;269486;1268;22650;-86
2024/02/01 05:12:25;;;;;;;326.10;142.50;;;;;;;-1.84;100.00;99576.27;270283;1268;22547;-84
2024/02/01 05:18:27;;;;;;;356.10;155.00;;;;;;;-1.87;100.00;99583.66;271075;1268;22487;-83
2024/02/01 05:24:44;;;;;;;312.00;136.10;;;;;;;-2.00;100.00;99588.05;273728;1271;22352;-84
2024/02/01 05:30:46;;;;;;;313.00;135.20;;;;;;;-2.09;100.00;99594.64;273067;1268;22533;-84
2024/02/01 05:36:54;;;;;;;288.60;130.10;;;;;;;-2.05;100.00;99596.45;274043;1265;23410;-84
2024/02/01 05:42:57;;;;;;;267.30;125.20;;;;;;;-1.95;100.00;99594.09;273481;1261;22420;-83
2024/02/01 05:49:06;;;;;;;311.10;144.20;;;;;;;-1.90;100.00;99583.95;273372;1268;22520;-84
2024/02/01 05:55:13;;;;;;;293.40;135.70;;;;;;;-1.84;100.00;99581.00;273535;1274;22309;-83
2024/02/01 06:01:17;;;;;;;262.20;122.20;;;;;;;-1.84;100.00;99573.02;273272;1268;23323;-83
2024/02/01 06:07:21;;;;;;;282.20;133.50;;;;;;;-1.85;100.00;99572.54;272081;1268;22621;-82
2024/02/01 06:13:28;;;;;;;275.40;132.60;;;;;;;-1.88;100.00;99575.67;273698;1263;22177;-82
2024/02/01 06:19:30;;;;;;;258.40;123.50;;;;;;;-1.92;100.00;99575.54;273276;1268;23478;-83
2024/02/01 06:25:34;;;;;;;221.20;105.30;;;;;;;-1.92;100.00;99576.34;273356;1268;22256;-84
2024/02/01 06:31:57;;;;;;;226.90;109.30;;;;;;;-1.90;100.00;99575.85;273273;1268;22672;-83
2024/02/01 06:38:15;;;;;;;248.60;115.60;;;;;;;-1.87;100.00;99573.40;273356;1274;22242;-83
2024/02/01 06:44:43;;;;;;;239.70;113.40;;;;;;;-1.83;100.00;99573.64;272930;1268;22383;-82
2024/02/01 06:50:54;;;;;;;259.60;121.10;;;;;;;-1.74;100.00;99565.95;273150;1268;22885;-82
2024/02/01 06:57:03;;;;;;;254.40;119.90;;;;;;;-1.58;100.00;99552.34;271489;1268;24482;-82
2024/02/01 07:03:13;;;;;;;292.00;135.00;;;;;;;-1.40;100.00;99532.19;273278;1268;22325;-85
2024/02/01 07:09:27;;;;;;;280.80;130.10;;;;;;;-1.16;100.00;99522.54;273334;1268;22307;-83
2024/02/01 07:15:30;;;;;;;262.70;126.50;;;;;;;-0.87;100.00;99510.90;273304;1259;22318;-83
2024/02/01 07:22:06;;;;;;;211.50;99.70;;;;;;;-0.58;100.00;99510.04;273195;1266;22768;-84
2024/02/01 08:00:57;;;;;;;135.30;66.80;;;;;;;0.93;100.00;99498.30;272862;1268;26146;-87
2024/02/01 08:14:06;;;;;;;91.80;47.90;;;;;;;1.44;100.00;99488.38;272696;1268;23022;-88
2024/02/01 08:20:53;;;;;;;102.70;48.50;;;;;;;1.85;100.00;99488.96;273679;1274;22354;-88
2024/02/01 08:27:52;;;;;;;102.30;53.70;;;;;;;2.15;100.00;99482.73;273904;1275;22380;-88
2024/02/01 08:33:57;;;;;;;89.20;44.70;;;;;;;2.35;100.00;99484.38;273235;1269;22181;-91
2024/02/01 08:39:59;;;;;;;83.40;43.80;;;;;;;2.35;100.00;99491.06;270510;1268;22519;-89
2024/02/01 08:46:05;;;;;;;76.20;40.60;;;;;;;2.39;100.00;99500.33;272030;1269;25317;-89
2024/02/01 08:52:53;;;;;;;78.90;39.10;;;;;;;2.48;100.00;99502.36;272550;1268;22959;-89
2024/02/01 08:59:39;;;;;;;66.60;37.10;;;;;;;2.67;100.00;99500.67;272284;1271;25619;-89
2024/02/01 09:05:50;;;;;;;64.40;36.00;;;;;;;2.92;100.00;99504.41;273342;1272;22185;-90
2024/02/01 09:11:53;;;;;;;69.70;36.70;;;;;;;3.22;100.00;99510.77;273224;1271;22263;-88
2024/02/01 09:17:59;;;;;;;65.60;32.80;;;;;;;3.46;100.00;99511.05;272799;1269;25306;-89
2024/02/01 09:24:27;;;;;;;59.40;32.50;;;;;;;3.65;100.00;99505.60;273493;1268;22244;-88
2024/02/01 09:30:55;;;;;;;49.20;28.80;;;;;;;3.86;100.00;99502.67;273168;1268;22427;-87
2024/02/01 09:37:24;;;;;;;43.60;24.50;;;;;;;4.06;100.00;99504.73;272608;1268;22179;-88
2024/02/01 09:43:26;;;;;;;47.30;25.10;;;;;;;4.30;100.00;99511.77;273462;1268;22209;-88
2024/02/01 09:49:30;;;;;;;40.00;23.00;;;;;;;4.74;100.00;99516.48;273623;1254;22256;-88
2024/02/01 09:55:39;;;;;;;34.70;19.80;;;;;;;5.32;100.00;99516.38;273699;1271;22286;-88
2024/02/01 10:02:30;;;;;;;29.10;16.80;;;;;;;5.54;100.00;99508.41;271762;1273;22811;-86
2024/02/01 10:09:54;;;;;;;29.00;17.30;;;;;;;5.61;100.00;99505.90;272575;1270;23814;-88
2024/02/01 10:17:17;;;;;;;29.60;16.80;;;;;;;5.59;100.00;99511.61;272773;1270;22188;-87
2024/02/01 10:24:26;;;;;;;28.20;17.50;;;;;;;5.47;100.00;99521.17;273430;1268;22234;-86
2024/02/01 10:32:24;;;;;;;30.90;18.20;;;;;;;5.27;100.00;99526.10;272514;1276;22578;-87
2024/02/01 10:39:59;;;;;;;28.70;17.10;;;;;;;4.95;100.00;99532.70;273031;1269;22518;-87
2024/02/01 10:47:06;;;;;;;27.60;16.60;;;;;;;4.69;100.00;99529.02;271579;1280;22438;-87
2024/02/01 11:01:53;;;;;;;33.10;18.60;;;;;;;4.53;100.00;99525.34;271455;1269;22566;-88
2024/02/01 11:18:10;;;;;;;31.90;19.10;;;;;;;4.58;100.00;99518.82;269492;1283;22247;-89
2024/02/01 11:25:26;;;;;;;32.80;20.70;;;;;;;4.56;100.00;99522.08;268714;1277;25214;-88
2024/02/01 11:47:26;;;;;;;40.00;24.10;;;;;;;4.31;100.00;99514.61;268983;1282;22581;-87
2024/02/01 11:53:51;;;;;;;42.60;26.10;;;;;;;4.26;100.00;99508.91;268159;1273;23128;-86
2024/02/01 12:08:06;;;;;;;44.20;25.40;;;;;;;4.25;100.00;99498.16;270548;1269;23117;-89
2024/02/01 12:14:21;;;;;;;48.10;28.80;;;;;;;4.29;100.00;99496.41;271345;1270;22280;-88
2024/02/01 12:20:30;;;;;;;48.10;28.80;;;;;;;4.32;100.00;99493.98;273617;1269;22230;-88
2024/02/01 12:26:33;;;;;;;47.60;29.00;;;;;;;4.34;100.00;99485.65;273278;1277;22475;-88
2024/02/01 12:32:57;;;;;;;48.60;28.00;;;;;;;4.40;100.00;99480.88;273568;1270;22935;-88
2024/02/01 12:39:36;;;;;;;44.10;26.10;;;;;;;4.49;100.00;99474.98;273657;1271;22268;-89
2024/02/01 12:45:45;;;;;;;41.90;24.30;;;;;;;4.57;100.00;99470.52;273840;1270;23259;-88
2024/02/01 12:51:53;;;;;;;46.90;26.80;;;;;;;4.63;100.00;99463.25;272680;1270;23703;-88
2024/02/01 13:05:53;;;;;;;38.50;24.00;;;;;;;4.59;100.00;99472.61;271631;1275;22273;-89
2024/02/01 13:12:28;;;;;;;34.30;22.20;;;;;;;4.48;100.00;99477.19;272352;1275;22316;-88
2024/02/01 13:18:47;;;;;;;;;;;;;;;;;;;;;
2024/02/01 13:25:02;;;;;;;38.80;23.70;;;;;;;4.44;100.00;99473.12;273517;1271;22328;-88
2024/02/01 13:31:29;;;;;;;34.40;21.50;;;;;;;4.46;100.00;99473.75;273458;1274;22307;-89
2024/02/01 13:37:36;;;;;;;38.30;22.00;;;;;;;4.48;100.00;99471.78;273641;1268;22435;-88
2024/02/01 13:44:04;;;;;;;29.90;19.50;;;;;;;4.56;100.00;99472.10;272294;1267;22519;-88
2024/02/01 13:50:32;;;;;;;29.30;19.30;;;;;;;4.61;100.00;99473.01;273923;1268;22183;-88
2024/02/01 13:56:34;;;;;;;30.20;19.60;;;;;;;4.63;100.00;99475.66;273716;1269;22379;-88
2024/02/01 14:02:38;;;;;;;32.70;20.40;;;;;;;4.60;100.00;99473.37;273761;1276;23144;-88
2024/02/01 14:08:50;;;;;;;33.90;19.20;;;;;;;4.56;100.00;99481.48;273248;1268;22381;-89
2024/02/01 14:14:58;;;;;;;31.10;18.00;;;;;;;4.50;100.00;99485.86;272623;1268;22278;-89
2024/02/01 14:21:02;;;;;;;30.80;18.80;;;;;;;4.45;100.00;99488.64;273939;1270;22257;-88
2024/02/01 14:27:31;;;;;;;27.40;18.30;;;;;;;4.40;100.00;99497.34;273748;1270;22274;-87
2024/02/01 14:33:35;;;;;;;28.10;17.90;;;;;;;4.36;100.00;99498.88;271291;1268;25268;-88
2024/02/01 14:39:51;;;;;;;26.00;17.20;;;;;;;4.32;100.00;99503.19;273681;1271;23291;-89
2024/02/01 14:45:56;;;;;;;25.40;16.10;;;;;;;4.27;100.00;99496.73;269859;1268;23022;-88
2024/02/01 14:52:00;;;;;;;28.30;18.40;;;;;;;4.27;100.00;99501.66;273802;1268;23187;-88
2024/02/01 14:58:04;;;;;;;26.40;16.30;;;;;;;4.26;100.00;99507.38;270121;1268;22553;-89
2024/02/01 15:04:30;;;;;;;;;;;;;;;;;;;;;
2024/02/01 15:11:49;;;;;;;25.80;16.90;;;;;;;4.21;100.00;99525.65;271134;1268;22342;-88
2024/02/01 15:17:57;;;;;;;27.30;16.20;;;;;;;4.16;100.00;99535.02;272669;1268;22687;-88
2024/02/01 15:25:35;;;;;;;;;;;;;;;;;;;;;
2024/02/01 15:33:19;;;;;;;31.20;18.00;;;;;;;3.89;100.00;99543.85;269630;1274;22595;-89
2024/02/01 15:47:58;;;;;;;;;;;;;;;;;;;;;
2024/02/01 15:54:32;;;;;;;29.00;18.00;;;;;;;3.57;100.00;99578.98;271715;1270;22566;-89
2024/02/01 16:09:37;;;;;;;;;;;;;;;;;;;;;
2024/02/01 16:15:47;;;;;;;37.10;22.60;;;;;;;3.45;100.00;99601.85;271661;1280;22234;-88
2024/02/01 16:22:15;;;;;;;39.50;21.60;;;;;;;3.40;100.00;99606.33;270516;1274;22249;-90
2024/02/01 16:28:46;;;;;;;38.40;22.50;;;;;;;3.39;100.00;99617.34;273309;1275;22245;-88
2024/02/01 16:34:51;;;;;;;39.40;22.50;;;;;;;3.36;100.00;99623.98;273380;1270;22223;-88
2024/02/01 16:41:22;;;;;;;41.00;24.00;;;;;;;3.32;100.00;99636.84;273653;1252;22765;-88
2024/02/01 16:48:00;;;;;;;40.50;22.60;;;;;;;3.33;100.00;99644.95;273026;1268;23600;-90
2024/02/01 16:54:24;;;;;;;43.10;23.00;;;;;;;3.37;100.00;99653.23;273704;1268;22214;-88
2024/02/01 17:00:30;;;;;;;42.00;24.10;;;;;;;3.37;100.00;99660.47;273194;1268;388843;-89
2024/02/01 17:06:33;;;;;;;40.40;23.70;;;;;;;3.32;100.00;99667.32;265871;1264;10001379;-88
2024/02/01 17:12:35;;;;;;;40.70;23.30;;;;;;;3.27;100.00;99668.44;273168;1266;22546;-89
2024/02/01 17:18:38;;;;;;;39.80;22.40;;;;;;;3.23;100.00;99677.37;272896;1268;23039;-88
2024/02/01 17:24:58;;;;;;;44.40;25.50;;;;;;;3.21;100.00;99691.53;273477;1271;24141;-88
2024/02/01 17:31:33;;;;;;;41.90;24.10;;;;;;;3.22;100.00;99690.64;271896;1268;22240;-89
2024/02/01 17:37:39;;;;;;;37.30;23.50;;;;;;;3.22;100.00;99691.72;272312;1268;22287;-89
2024/02/01 17:43:41;;;;;;;46.70;20.60;;;;;;;3.15;100.00;99688.65;273328;1273;22312;-88
2024/02/01 17:49:53;;;;;;;44.60;24.30;;;;;;;3.10;100.00;99690.95;273134;1268;23836;-88
2024/02/01 17:55:56;;;;;;;45.00;25.90;;;;;;;3.06;100.00;99696.84;270517;1268;22555;-89
2024/02/01 18:02:00;;;;;;;48.10;26.30;;;;;;;3.01;100.00;99700.24;270627;1268;22566;-89
2024/02/01 18:08:05;;;;;;;43.10;24.90;;;;;;;2.96;100.00;99701.29;273520;1274;22052;-88
2024/02/01 18:14:27;;;;;;;46.90;25.00;;;;;;;2.92;100.00;99698.91;272378;1266;22532;-88
2024/02/01 18:20:55;;;;;;;53.40;30.20;;;;;;;2.94;100.00;99699.19;270815;1268;22297;-89
2024/02/01 18:26:59;;;;;;;54.70;29.40;;;;;;;2.98;100.00;99691.13;273667;1271;23333;-89
2024/02/01 18:33:04;;;;;;;53.10;30.60;;;;;;;3.05;100.00;99684.61;273328;1268;22227;-88
2024/02/01 18:39:13;;;;;;;61.30;33.50;;;;;;;3.11;100.00;99681.66;272641;1268;22726;-87
2024/02/01 18:46:01;;;;;;;59.60;33.10;;;;;;;3.13;100.00;99686.80;272000;1268;22661;-89
2024/02/01 18:52:32;;;;;;;61.70;33.40;;;;;;;3.15;100.00;99689.08;271347;1267;22533;-88
2024/02/01 18:58:42;;;;;;;53.10;28.70;;;;;;;3.18;100.00;99700.25;273638;1268;22227;-87
2024/02/01 19:05:08;;;;;;;47.30;27.70;;;;;;;3.23;100.00;99694.30;272630;1268;22209;-88
2024/02/01 19:11:40;;;;;;;48.80;24.10;;;;;;;3.26;100.00;99694.16;273449;1268;26509;-89
2024/02/01 19:17:47;;;;;;;45.10;23.40;;;;;;;3.29;100.00;99700.89;273272;1270;22184;-88
2024/02/01 19:24:32;;;;;;;45.40;25.80;;;;;;;3.31;100.00;99713.29;273273;1268;22218;-88
2024/02/01 19:30:59;;;;;;;51.40;24.60;;;;;;;3.34;100.00;99701.91;273471;1268;23511;-87
2024/02/01 19:38:03;;;;;;;;;;;;;;;;;;;;;
2024/02/01 19:44:14;;;;;;;44.20;23.50;;;;;;;3.39;100.00;99708.39;271535;1268;22681;-89
2024/02/01 19:50:43;;;;;;;39.90;21.60;;;;;;;3.37;100.00;99712.59;272035;1268;22877;-89
2024/02/01 19:57:08;;;;;;;41.80;20.00;;;;;;;3.38;100.00;99707.16;273382;1270;22199;-88
2024/02/01 20:03:57;;;;;;;33.60;17.80;;;;;;;3.45;100.00;99706.48;273403;1268;22810;-89
2024/02/01 20:10:14;;;;;;;31.70;17.20;;;;;;;3.51;100.00;99708.66;271409;1267;23165;-88
2024/02/01 20:16:17;;;;;;;37.20;17.00;;;;;;;3.55;100.00;99701.88;270689;1261;22582;-88
2024/02/01 20:22:19;;;;;;;29.10;14.70;;;;;;;3.62;100.00;99684.44;272763;1268;22522;-88
2024/02/01 20:29:11;;;;;;;27.80;14.10;;;;;;;3.65;100.00;99703.37;271122;1268;22573;-88
2024/02/01 20:35:34;;;;;;;23.90;12.20;;;;;;;3.65;100.00;99713.74;272389;1268;22387;-90
2024/02/01 20:41:39;;;;;;;21.90;11.80;;;;;;;3.66;100.00;99721.95;272662;1269;22526;-89
2024/02/01 20:48:01;;;;;;;26.20;12.80;;;;;;;3.63;100.00;99724.90;272306;1268;22707;-88
2024/02/01 20:54:28;;;;;;;26.70;13.60;;;;;;;3.62;100.00;99722.75;271802;1268;22256;-88
2024/02/01 21:00:33;;;;;;;;;;;;;;;3.62;100.00;99725.58;273455;1269;22530;-87
2024/02/01 21:07:16;;;;;;;28.60;13.90;;;;;;;3.62;100.00;99729.38;272701;1268;22699;-89
2024/02/01 21:13:32;;;;;;;33.40;15.90;;;;;;;3.58;100.00;99737.32;273790;1274;22252;-89
2024/02/01 21:19:55;;;;;;;32.10;15.70;;;;;;;3.53;100.00;99747.35;273589;1271;22254;-88
2024/02/01 21:26:02;;;;;;;31.70;17.20;;;;;;;3.47;100.00;99748.76;273798;1270;22217;-89
2024/02/01 21:32:55;;;;;;;31.90;16.40;;;;;;;3.44;100.00;99746.63;273819;1270;22225;-88
2024/02/01 21:38:59;;;;;;;32.10;15.80;;;;;;;3.43;100.00;99750.60;273658;1272;22175;-89
2024/02/01 21:45:29;;;;;;;36.60;16.10;;;;;;;3.41;100.00;99755.97;273580;1274;23519;-89
2024/02/01 21:51:53;;;;;;;43.10;17.80;;;;;;;3.36;100.00;99766.42;273703;1271;24140;-90
2024/02/01 21:58:07;;;;;;;40.10;16.40;;;;;;;3.33;100.00;99765.63;273478;1269;22402;-89
2024/02/01 22:04:14;;;;;;;37.40;15.20;;;;;;;3.30;100.00;99768.52;273218;1258;22330;-88
2024/02/01 22:10:17;;;;;;;33.50;15.70;;;;;;;3.30;100.00;99774.00;273251;1268;22200;-89
2024/02/01 22:16:41;;;;;;;31.50;15.50;;;;;;;3.27;100.00;99776.52;273541;1273;22238;-89
2024/02/01 22:22:44;;;;;;;30.00;13.60;;;;;;;3.27;100.00;99786.80;272401;1268;22560;-87
2024/02/01 22:28:49;;;;;;;27.90;14.10;;;;;;;3.25;100.00;99789.91;271572;1265;24883;-89
2024/02/01 22:34:58;;;;;;;30.50;14.10;;;;;;;3.25;100.00;99793.77;273659;1271;22435;-88
2024/02/01 22:41:01;;;;;;;33.40;13.40;;;;;;;3.23;100.00;99795.06;273109;1268;23049;-89
2024/02/01 22:47:32;;;;;;;34.30;14.50;;;;;;;3.19;100.00;99801.05;273709;1263;22365;-89
2024/02/01 22:53:35;;;;;;;31.40;14.30;;;;;;;3.15;100.00;99801.15;273562;1272;23474;-89
2024/02/01 22:59:37;;;;;;;33.40;14.20;;;;;;;3.14;100.00;99799.22;273498;1273;22370;-89
2024/02/01 23:05:43;;;;;;;24.30;12.10;;;;;;;3.09;100.00;99797.50;272422;1268;22365;-87
2024/02/01 23:12:30;;;;;;;31.10;11.80;;;;;;;3.08;100.00;99791.48;273699;1276;22213;-89
2024/02/01 23:18:33;;;;;;;35.30;13.70;;;;;;;3.07;100.00;99780.61;272404;1270;22553;-89
2024/02/01 23:24:36;;;;;;;25.60;11.30;;;;;;;3.04;100.00;99782.08;271905;1269;22258;-88
2024/02/01 23:30:38;;;;;;;28.60;11.60;;;;;;;3.00;100.00;99780.11;272274;1268;22305;-88
2024/02/01 23:36:44;;;;;;;25.20;9.90;;;;;;;3.00;100.00;99786.88;273714;1276;22314;-88
2024/02/01 23:42:51;;;;;;;19.60;8.70;;;;;;;3.00;100.00;99781.77;273085;1268;22395;-87
2024/02/01 23:49:36;;;;;;;19.50;8.20;;;;;;;3.00;100.00;99780.30;272656;1268;22298;-87
2024/02/01 23:55:42;;;;;;;20.50;8.40;;;;;;;2.98;100.00;99777.14;272644;1268;23674;-88
